Aviation Digital Data Service (ADDS)

Output produced by METARs form (0821 UTC 19 April 2019)
found at http://www.aviationweather.gov/metar/data/
 
Forecast for: VTCP (PHRAE , TH)
Text: TAF VTCP 190500Z 1906/2006 22005KT 6000 FEW030
Forecast period: 0600 to 2100 UTC 19 April 2019
Forecast type: FROM: standard forecast or significant change
Winds: from the SW (220 degrees) at 6 MPH (5 knots; 2.6 m/s)
Visibility: 4 miles (6 km)
Ceiling: at least 12,000 feet AGL
Clouds: few clouds at 3000 feet AGL
Weather: no significant weather forecast for this period
Text: BECMG 1921/1923 4000 HZ
Forecast period: 2100 UTC 19 April 2019 to 0100 UTC 20 April 2019
Forecast type: BECOMING: Conditions expected to become as follows by 2300 UTC 19 April 2019
Winds: from the SW (220 degrees) at 6 MPH (5 knots; 2.6 m/s)
Visibility: 2.49 miles (4.01 km)
Ceiling: at least 12,000 feet AGL
Clouds: few clouds at 3000 feet AGL
Weather: HZ  (haze)
Text: BECMG 2001/2003 6000 NSW
Forecast period: 0100 to 0600 UTC 20 April 2019
Forecast type: BECOMING: Conditions expected to become as follows by 0300 UTC 20 April 2019
Winds: from the SW (220 degrees) at 6 MPH (5 knots; 2.6 m/s)
Visibility: 4 miles (6 km)
Ceiling: at least 12,000 feet AGL
Clouds: few clouds at 3000 feet AGL
Weather: NSW  (no significant weather)